KDCU/DCU METAR and TAF weather

Enter ICAO airport designator
Station Type Date Time Source
KDCU METAR 2020/07/12 18:28 UTC NOAA

KDCU 121828Z AUTO 14009KT 10SM -RA SCT100 SCT120 21/20 A2983 RMK AO2 LTG DSNT SE-SW P0000 T02060200 $


Station Type Date Time Source
KDCU Decoded METAR 2020/07/12 18:28 UTC NOAA

PRYOR FIELD, AL, United States (KDCU) 34-39N 086-57W 176M
Jul 12, 2020 - 02:28 PM EDT / 2020.07.12 1828 UTC
Wind: from the SE (140 degrees) at 10 MPH (9 KT):0
Visibility: 10 mile(s):0
Sky conditions: partly cloudy
Weather: light rain; Lightning observed
Precipitation last hour: A trace
Temperature: 69.1 F (20.6 C)
Dew Point: 68.0 F (20.0 C)
Relative Humidity: 96%
Pressure (altimeter): 29.83 in. Hg (1010 hPa)
ob: KDCU 121828Z AUTO 14009KT 10SM -RA SCT100 SCT120 21/20 A2983 RMK AO2 LTG DSNT SE-SW P0000 T02060200
cycle: 18

Station Type Date Time Source
KDCU TAF UTC NOAA

Error!

Example: see airport list